Time;durP1;ratioP1;P1;durP2;ratioP2;P2;SDS_P1;SDS_P2;PMS_P1;PMS_P2;Temp;Humidity;BMP_temperature;BMP_pressure;BME280_temperature;BME280_humidity;BME280_pressure;Samples;Min_cycle;Max_cycle;Signal;HPM_P1;HPM_P2
2021/10/08 00:01:32;;;;;;;4.10;2.50;;;;;;;-144.51;100.00;69251.94;5053212;28;19916;-78
2021/10/08 00:04:18;;;;;;;4.20;1.10;;;;;;;-144.51;100.00;69251.94;5058221;28;20048;-79
2021/10/08 00:07:03;;;;;;;3.45;1.98;;;;;;;-144.51;100.00;69251.94;5055515;28;20049;-80
2021/10/08 00:09:48;;;;;;;2.45;1.50;;;;;;;-144.51;100.00;69251.94;5053911;28;20068;-79
2021/10/08 00:12:36;;;;;;;4.25;1.80;;;;;;;-144.51;100.00;69251.94;5055021;28;20040;-79
2021/10/08 00:15:39;;;;;;;4.80;1.75;;;;;;;-144.51;100.00;69251.94;5055419;28;20052;-77
2021/10/08 00:18:24;;;;;;;4.68;1.55;;;;;;;-144.51;100.00;69251.94;5053001;28;20041;-77
2021/10/08 00:21:09;;;;;;;;;;;;;;;-144.51;100.00;69251.94;5053408;28;20501;-77
2021/10/08 00:23:53;;;;;;;2.35;1.48;;;;;;;-144.51;100.00;69251.94;5054687;28;19912;-78
2021/10/08 00:26:40;;;;;;;4.38;1.48;;;;;;;-144.51;100.00;69251.94;5052480;28;20037;-77
2021/10/08 00:29:25;;;;;;;2.00;1.48;;;;;;;-144.51;100.00;69251.94;5043831;28;20040;-77
2021/10/08 00:32:10;;;;;;;;;;;;;;;-144.51;100.00;69251.94;5027837;28;20041;-78
2021/10/08 00:34:54;;;;;;;6.82;1.73;;;;;;;-144.51;100.00;69251.94;5037967;28;20385;-79
2021/10/08 00:37:39;;;;;;;4.85;1.80;;;;;;;-144.51;100.00;69251.94;5041919;28;20413;-76
2021/10/08 00:40:24;;;;;;;;;;;;;;;-144.51;100.00;69251.94;5054663;28;20041;-77
2021/10/08 00:43:09;;;;;;;2.55;1.40;;;;;;;-144.51;100.00;69251.94;5030169;28;19912;-77
2021/10/08 00:46:13;;;;;;;2.13;1.33;;;;;;;-144.51;100.00;69251.94;5049611;28;20086;-78
2021/10/08 00:48:58;;;;;;;;;;;;;;;-144.51;100.00;69251.94;5052213;28;20505;-77
2021/10/08 00:51:43;;;;;;;5.03;1.35;;;;;;;-144.51;100.00;69251.94;5038011;28;19917;-79
2021/10/08 00:54:27;;;;;;;2.35;1.15;;;;;;;-144.51;100.00;69251.94;5036275;28;20037;-78
2021/10/08 00:57:13;;;;;;;;;;;;;;;-144.51;100.00;69251.94;5038952;28;20045;-78
2021/10/08 00:59:59;;;;;;;2.17;1.13;;;;;;;-144.51;100.00;69251.94;5037943;28;19912;-76
2021/10/08 01:02:44;;;;;;;1.77;1.17;;;;;;;-144.51;100.00;69251.94;5032420;28;20040;-78
2021/10/08 01:09:17;;;;;;;5.05;1.73;;;;;;;-144.51;100.00;69251.94;5052987;28;20052;-78
2021/10/08 01:12:02;;;;;;;;;;;;;;;-144.51;100.00;69251.94;5054268;28;20037;-77
2021/10/08 01:14:52;;;;;;;8.82;1.33;;;;;;;-144.51;100.00;69251.94;5039707;28;19916;-78
2021/10/08 01:17:56;;;;;;;4.45;1.60;;;;;;;-144.51;100.00;69251.94;5045265;28;20104;-77
2021/10/08 01:20:42;;;;;;;2.35;1.20;;;;;;;-144.51;100.00;69251.94;5040847;28;20037;-77
2021/10/08 01:23:51;;;;;;;3.50;1.83;;;;;;;-144.51;100.00;69251.94;5053394;28;20033;-79
2021/10/08 01:26:37;;;;;;;4.57;1.65;;;;;;;-144.51;100.00;69251.94;5042565;28;20509;-78
2021/10/08 01:29:22;;;;;;;3.55;1.73;;;;;;;-144.51;100.00;69251.94;5040234;28;20045;-79
2021/10/08 01:32:07;;;;;;;;;;;;;;;-144.51;100.00;69251.94;5031013;28;20042;-77
2021/10/08 01:34:52;;;;;;;3.22;1.75;;;;;;;-144.51;100.00;69251.94;5046116;28;19916;-80
2021/10/08 01:37:39;;;;;;;2.97;2.08;;;;;;;-144.51;100.00;69251.94;5040685;28;20045;-78
2021/10/08 01:40:24;;;;;;;3.60;1.33;;;;;;;-144.51;100.00;69251.94;5044118;28;20409;-79
2021/10/08 01:43:15;;;;;;;2.42;1.52;;;;;;;-144.51;100.00;69251.94;5069077;28;20644;-80
2021/10/08 01:46:00;;;;;;;3.53;1.95;;;;;;;-144.51;100.00;69251.94;5055318;28;20045;-78
2021/10/08 01:48:53;;;;;;;7.07;1.60;;;;;;;-144.51;100.00;69251.94;5044163;28;20049;-76
2021/10/08 01:51:42;;;;;;;3.70;2.30;;;;;;;-144.51;100.00;69251.94;5034099;28;20042;-80
2021/10/08 01:57:51;;;;;;;4.88;1.35;;;;;;;-144.51;100.00;69251.94;5049998;28;20041;-78
2021/10/08 02:00:36;;;;;;;3.65;1.42;;;;;;;-144.51;100.00;69251.94;5052024;28;20049;-78
2021/10/08 02:03:47;;;;;;;3.60;1.65;;;;;;;-144.51;100.00;69251.94;5052653;28;20033;-79
2021/10/08 02:06:36;;;;;;;2.33;1.40;;;;;;;-144.51;100.00;69251.94;5040312;28;20052;-78
2021/10/08 02:09:22;;;;;;;3.92;1.67;;;;;;;-144.51;100.00;69251.94;5044545;28;20045;-78
2021/10/08 02:12:25;;;;;;;5.00;1.73;;;;;;;-144.51;100.00;69251.94;5045739;28;20045;-77
2021/10/08 02:15:10;;;;;;;;;;;;;;;-144.51;100.00;69251.94;5054787;28;20045;-77
2021/10/08 02:17:55;;;;;;;3.33;1.70;;;;;;;-144.51;100.00;69251.94;5034869;28;19913;-78
2021/10/08 02:20:41;;;;;;;3.35;1.90;;;;;;;-144.51;100.00;69251.94;5041794;28;20501;-78
2021/10/08 02:23:45;;;;;;;3.83;1.95;;;;;;;-144.51;100.00;69251.94;5039934;28;20049;-78
2021/10/08 02:26:30;;;;;;;3.70;1.65;;;;;;;-144.51;100.00;69251.94;5042765;28;20497;-78
2021/10/08 02:29:35;;;;;;;4.88;1.77;;;;;;;-144.51;100.00;69251.94;5043280;28;20044;-78
2021/10/08 02:32:23;;;;;;;6.78;1.75;;;;;;;-144.51;100.00;69251.94;5073183;28;20029;-78
2021/10/08 02:35:09;;;;;;;6.30;2.35;;;;;;;-144.51;100.00;69251.94;5029232;28;20080;-78
2021/10/08 02:37:54;;;;;;;7.38;3.75;;;;;;;-144.51;100.00;69251.94;5050141;28;20049;-78
2021/10/08 02:40:39;;;;;;;3.63;1.88;;;;;;;-144.51;100.00;69251.94;5043092;28;20037;-78
2021/10/08 02:43:25;;;;;;;2.67;1.80;;;;;;;-144.51;100.00;69251.94;5050407;28;20032;-76
2021/10/08 02:46:10;;;;;;;12.48;3.80;;;;;;;-144.51;100.00;69251.94;5070076;28;20049;-78
2021/10/08 02:48:54;;;;;;;;;;;;;;;-144.51;100.00;69251.94;5047200;28;20045;-76
2021/10/08 02:51:41;;;;;;;17.98;4.15;;;;;;;-144.51;100.00;69251.94;5035797;28;19928;-76
2021/10/08 02:54:26;;;;;;;7.80;3.88;;;;;;;-144.51;100.00;69251.94;5042075;28;20435;-77
2021/10/08 02:57:30;;;;;;;5.63;2.63;;;;;;;-144.51;100.00;69251.94;5055785;28;20041;-76
2021/10/08 03:00:14;;;;;;;9.85;2.70;;;;;;;-144.51;100.00;69251.94;5042311;28;20044;-76
2021/10/08 03:02:59;;;;;;;;;;;;;;;-144.51;100.00;69251.94;5070461;28;20040;-75
2021/10/08 03:05:44;;;;;;;8.15;3.33;;;;;;;-144.51;100.00;69251.94;5044100;28;19913;-78
2021/10/08 03:08:29;;;;;;;9.05;2.45;;;;;;;-144.51;100.00;69251.94;5027811;28;20048;-76
2021/10/08 03:11:36;;;;;;;5.60;1.98;;;;;;;-144.51;100.00;69251.94;5054186;28;20033;-76
2021/10/08 03:14:39;;;;;;;5.95;1.90;;;;;;;-144.51;100.00;69251.94;5050898;28;20288;-77
2021/10/08 03:17:24;;;;;;;;;;;;;;;-144.51;100.00;69251.94;5056830;28;20048;-76
2021/10/08 03:20:11;;;;;;;6.97;2.00;;;;;;;-144.51;100.00;69251.94;5060153;28;19912;-77
2021/10/08 03:22:56;;;;;;;5.90;2.00;;;;;;;-144.51;100.00;69251.94;5039123;28;20037;-76
2021/10/08 03:25:41;;;;;;;5.75;2.38;;;;;;;-144.51;100.00;69251.94;5039827;28;20413;-76
2021/10/08 03:28:27;;;;;;;2.85;1.75;;;;;;;-144.51;100.00;69251.94;5037381;28;20032;-77
2021/10/08 03:31:31;;;;;;;12.82;2.25;;;;;;;-144.51;100.00;69251.94;5047669;28;20041;-76
2021/10/08 03:37:23;;;;;;;8.30;2.38;;;;;;;-144.51;100.00;69251.94;5042988;28;20048;-77
2021/10/08 03:40:10;;;;;;;3.78;1.55;;;;;;;-144.51;100.00;69251.94;5043469;28;20037;-76
2021/10/08 03:42:58;;;;;;;4.13;1.98;;;;;;;-144.51;100.00;69251.94;5053071;28;20045;-77
2021/10/08 03:46:05;;;;;;;4.10;1.95;;;;;;;-144.51;100.00;69251.94;5042308;28;20045;-77
2021/10/08 03:51:54;;;;;;;5.60;2.42;;;;;;;-144.51;100.00;69251.94;5030785;28;20033;-77
2021/10/08 03:54:38;;;;;;;3.05;1.92;;;;;;;-144.51;100.00;69251.94;5050150;28;20029;-77
2021/10/08 03:57:23;;;;;;;3.53;2.20;;;;;;;-144.51;100.00;69251.94;5053934;28;20040;-77
2021/10/08 04:00:09;;;;;;;;;;;;;;;-144.51;100.00;69251.94;5048265;28;20041;-76
2021/10/08 04:03:00;;;;;;;3.45;2.08;;;;;;;-144.51;100.00;69251.94;5053444;28;19912;-77
2021/10/08 04:06:05;;;;;;;5.38;1.92;;;;;;;-144.51;100.00;69251.94;5038172;28;20044;-78
2021/10/08 04:08:51;;;;;;;6.53;2.15;;;;;;;-144.51;100.00;69251.94;5068894;28;20033;-76
2021/10/08 04:11:36;;;;;;;2.13;1.88;;;;;;;-144.51;100.00;69251.94;5041934;28;20040;-77
2021/10/08 04:14:21;;;;;;;;;;;;;;;-144.51;100.00;69251.94;5060658;28;20033;-76
2021/10/08 04:17:06;;;;;;;5.68;1.92;;;;;;;-144.51;100.00;69251.94;5069558;28;19921;-76
2021/10/08 04:20:10;;;;;;;5.32;2.53;;;;;;;-144.51;100.00;69251.94;5044905;28;20041;-75
2021/10/08 04:22:54;;;;;;;;;;;;;;;-144.51;100.00;69251.94;5036206;28;20497;-76
2021/10/08 04:25:40;;;;;;;4.60;1.70;;;;;;;-144.51;100.00;69251.94;5035903;28;19913;-78
2021/10/08 04:28:26;;;;;;;10.60;2.65;;;;;;;-144.51;100.00;69251.94;5033803;28;20045;-76
2021/10/08 04:31:12;;;;;;;5.90;3.03;;;;;;;-144.51;100.00;69251.94;5037942;28;20044;-77
2021/10/08 04:33:58;;;;;;;5.55;2.80;;;;;;;-144.51;100.00;69251.94;5042804;28;20037;-77
2021/10/08 04:36:43;;;;;;;;;;;;;;;-144.51;100.00;69251.94;5031746;28;20044;-77
2021/10/08 04:39:47;;;;;;;6.10;2.70;;;;;;;-144.51;100.00;69251.94;5056827;28;19913;-77
2021/10/08 04:42:32;;;;;;;;;;;;;;;-144.51;100.00;69251.94;5063417;28;20037;-77
2021/10/08 04:45:17;;;;;;;6.75;2.10;;;;;;;-144.51;100.00;69251.94;5045517;28;19913;-76
2021/10/08 04:48:20;;;;;;;8.35;2.92;;;;;;;-144.51;100.00;69251.94;5055734;28;20040;-78
2021/10/08 04:51:24;;;;;;;5.03;2.63;;;;;;;-144.51;100.00;69251.94;5051563;28;20029;-76
2021/10/08 04:54:09;;;;;;;;;;;;;;;-144.51;100.00;69251.94;5106234;22;20055;-82
2021/10/08 04:56:53;;;;;;;3.47;2.03;;;;;;;-144.51;100.00;69251.94;5099186;28;20401;-83
2021/10/08 04:59:41;;;;;;;5.45;2.22;;;;;;;-144.51;100.00;69251.94;5130166;27;20043;-81
2021/10/08 05:02:26;;;;;;;5.78;2.13;;;;;;;-144.51;100.00;69251.94;5097441;28;20032;-81
2021/10/08 05:05:11;;;;;;;8.48;2.70;;;;;;;-144.51;100.00;69251.94;5111322;28;20035;-82
2021/10/08 05:07:56;;;;;;;4.53;2.35;;;;;;;-144.51;100.00;69251.94;5115513;28;20048;-82
2021/10/08 05:10:42;;;;;;;3.08;1.70;;;;;;;-144.51;100.00;69251.94;5106366;28;20040;-83
2021/10/08 05:13:27;;;;;;;3.53;2.67;;;;;;;-144.51;100.00;69251.94;5119422;28;20044;-83
2021/10/08 05:16:13;;;;;;;10.40;3.13;;;;;;;-144.51;100.00;69251.94;5122204;28;20039;-82
2021/10/08 05:18:58;;;;;;;8.95;1.92;;;;;;;-144.51;100.00;69251.94;5121087;28;20043;-82
2021/10/08 05:21:48;;;;;;;5.72;2.58;;;;;;;-144.51;100.00;69251.94;5124808;28;20043;-82
2021/10/08 05:24:51;;;;;;;6.95;2.58;;;;;;;-144.51;100.00;69251.94;5109427;28;20435;-82
2021/10/08 05:27:55;;;;;;;3.45;2.25;;;;;;;-144.51;100.00;69251.94;5102114;28;20040;-82
2021/10/08 05:30:40;;;;;;;;;;;;;;;-144.51;100.00;69251.94;5118196;28;20051;-82
2021/10/08 05:33:27;;;;;;;8.98;2.40;;;;;;;-144.51;100.00;69251.94;5109755;28;19916;-82
2021/10/08 05:36:12;;;;;;;9.70;2.78;;;;;;;-144.51;100.00;69251.94;5116566;28;20424;-83
2021/10/08 05:38:57;;;;;;;10.30;2.15;;;;;;;-144.51;100.00;69251.94;5118215;28;20043;-83
2021/10/08 05:41:42;;;;;;;12.30;2.58;;;;;;;-144.51;100.00;69251.94;5117835;28;20040;-83
2021/10/08 05:44:27;;;;;;;5.90;2.15;;;;;;;-144.51;100.00;69251.94;5117736;28;20043;-84
2021/10/08 05:47:30;;;;;;;16.95;3.47;;;;;;;-144.51;100.00;69251.94;5115589;28;20043;-82
2021/10/08 05:50:15;;;;;;;;;;;;;;;-144.51;100.00;69251.94;5120407;28;20048;-83
2021/10/08 05:53:00;;;;;;;6.10;2.95;;;;;;;-144.51;100.00;69251.94;5125878;28;19916;-83
2021/10/08 05:55:45;;;;;;;;;;;;;;;-144.51;100.00;69251.94;5121997;28;20044;-83
2021/10/08 05:58:30;;;;;;;15.68;4.13;;;;;;;-144.51;100.00;69251.94;5119485;28;19915;-83
2021/10/08 06:01:15;;;;;;;5.30;2.92;;;;;;;-144.51;100.00;69251.94;5124254;28;20043;-83
2021/10/08 06:04:05;;;;;;;;;;;;;;;-144.51;100.00;69251.94;5121468;28;20039;-83
2021/10/08 06:07:10;;;;;;;5.93;3.10;;;;;;;-144.51;100.00;69251.94;5108371;28;19912;-83
2021/10/08 06:09:55;;;;;;;5.38;2.53;;;;;;;-144.51;100.00;69251.94;5122098;28;20039;-83
2021/10/08 06:12:41;;;;;;;;;;;;;;;-144.51;100.00;69251.94;5113989;28;20040;-83
2021/10/08 06:15:27;;;;;;;4.55;2.20;;;;;;;-144.51;100.00;69251.94;5102796;28;19912;-82
2021/10/08 06:18:13;;;;;;;5.72;3.05;;;;;;;-144.51;100.00;69251.94;5103156;28;20322;-83
2021/10/08 06:21:18;;;;;;;4.90;2.47;;;;;;;-144.51;100.00;69251.94;5115258;28;20044;-83
2021/10/08 06:24:23;;;;;;;4.10;2.35;;;;;;;-144.51;100.00;69251.94;5114282;28;20387;-83
2021/10/08 06:27:47;;;;;;;18.25;4.85;;;;;;;-144.51;100.00;69251.94;5118503;28;20044;-83
2021/10/08 06:30:32;;;;;;;15.38;4.78;;;;;;;-144.51;100.00;69251.94;5116657;28;20032;-82
2021/10/08 06:33:17;;;;;;;14.05;4.65;;;;;;;-144.51;100.00;69251.94;5119838;28;20043;-83
2021/10/08 06:36:04;;;;;;;11.43;4.32;;;;;;;-144.51;100.00;69251.94;5124324;28;20411;-82
2021/10/08 06:38:50;;;;;;;10.90;3.97;;;;;;;-144.51;100.00;69251.94;5123240;28;20051;-83
2021/10/08 06:41:35;;;;;;;15.20;4.97;;;;;;;-144.51;100.00;69251.94;5114684;28;20031;-83
2021/10/08 06:44:31;;;;;;;10.55;3.67;;;;;;;-144.51;100.00;69251.94;5124434;28;20035;-83
2021/10/08 06:47:16;;;;;;;9.23;3.25;;;;;;;-144.51;100.00;69251.94;5122399;28;20036;-83
2021/10/08 06:50:01;;;;;;;5.05;3.38;;;;;;;-144.51;100.00;69251.94;5119207;28;20044;-82
2021/10/08 06:52:49;;;;;;;7.88;3.30;;;;;;;-144.51;100.00;69251.94;5123778;28;20043;-83
2021/10/08 06:55:36;;;;;;;6.95;3.70;;;;;;;-144.51;100.00;69251.94;5123321;28;20047;-82
2021/10/08 06:58:22;;;;;;;8.38;4.40;;;;;;;-144.51;100.00;69251.94;5120414;28;20043;-84
2021/10/08 07:01:07;;;;;;;11.35;4.32;;;;;;;-144.51;100.00;69251.94;5124045;28;20496;-83
2021/10/08 07:03:53;;;;;;;10.32;3.63;;;;;;;-144.51;100.00;69251.94;5121073;28;20404;-84
2021/10/08 07:06:39;;;;;;;8.65;4.45;;;;;;;-144.51;100.00;69251.94;5114194;28;20044;-81
2021/10/08 07:09:30;;;;;;;6.35;4.55;;;;;;;-144.51;100.00;69251.94;5124133;28;20040;-81
2021/10/08 07:12:15;;;;;;;9.40;4.88;;;;;;;-144.51;100.00;69251.94;5122028;28;20043;-81
2021/10/08 07:15:04;;;;;;;;;;;;;;;-144.51;100.00;69251.94;5116964;28;20032;-81
2021/10/08 07:18:10;;;;;;;10.23;5.13;;;;;;;-144.51;100.00;69251.94;5119149;28;19915;-81
2021/10/08 07:20:55;;;;;;;7.70;4.60;;;;;;;-144.51;100.00;69251.94;5121311;28;20039;-81
2021/10/08 07:23:44;;;;;;;9.77;5.22;;;;;;;-144.51;100.00;69251.94;5119987;28;20032;-80
2021/10/08 07:26:31;;;;;;;8.63;5.25;;;;;;;-144.51;100.00;69251.94;5110005;28;20039;-80
2021/10/08 07:29:15;;;;;;;9.35;5.93;;;;;;;-144.51;100.00;69251.94;5121012;28;20492;-79
2021/10/08 07:32:00;;;;;;;9.52;6.25;;;;;;;-144.51;100.00;69251.94;5112081;28;20035;-78
2021/10/08 07:34:45;;;;;;;9.93;5.75;;;;;;;-144.51;100.00;69251.94;5113833;27;20039;-81
2021/10/08 07:37:48;;;;;;;7.53;5.50;;;;;;;-144.51;100.00;69251.94;5112833;28;20036;-81
2021/10/08 07:43:40;;;;;;;9.05;5.72;;;;;;;-144.51;100.00;69251.94;5119248;28;20500;-82
2021/10/08 07:46:24;;;;;;;9.25;5.60;;;;;;;-144.51;100.00;69251.94;5115936;28;20039;-81
2021/10/08 07:49:09;;;;;;;;;;;;;;;-144.51;100.00;69251.94;5122619;28;20027;-81
2021/10/08 07:51:54;;;;;;;9.85;4.63;;;;;;;-144.51;100.00;69251.94;5116219;28;19911;-80
2021/10/08 07:54:39;;;;;;;;;;;;;;;-144.51;100.00;69251.94;5116990;28;20027;-82
2021/10/08 08:00:28;;;;;;;7.70;4.18;;;;;;;-144.51;100.00;69251.94;5120822;28;20407;-80
2021/10/08 08:06:16;;;;;;;8.35;5.13;;;;;;;-144.51;100.00;69251.94;5121799;28;19912;-80
2021/10/08 08:09:19;;;;;;;4.78;3.35;;;;;;;-144.51;100.00;69251.94;5117041;28;20040;-81
2021/10/08 08:12:23;;;;;;;8.05;4.90;;;;;;;-144.51;100.00;69251.94;5120634;28;20395;-81
2021/10/08 08:15:08;;;;;;;;;;;;;;;-144.51;100.00;69251.94;5122591;28;20078;-84
2021/10/08 08:17:52;;;;;;;11.73;4.90;;;;;;;-144.51;100.00;69251.94;5107446;28;19912;-79
2021/10/08 08:20:37;;;;;;;6.57;4.47;;;;;;;-144.51;100.00;69251.94;5117964;28;20035;-79
2021/10/08 08:23:22;;;;;;;8.77;4.38;;;;;;;-144.51;100.00;69251.94;5118651;28;20043;-78
2021/10/08 08:26:07;;;;;;;6.03;4.13;;;;;;;-144.51;100.00;69251.94;5115277;28;20035;-79
2021/10/08 08:28:52;;;;;;;8.70;5.10;;;;;;;-144.51;100.00;69251.94;5120244;28;20043;-81
2021/10/08 08:31:55;;;;;;;8.70;4.93;;;;;;;-144.51;100.00;69251.94;5118499;28;20039;-79
2021/10/08 08:34:40;;;;;;;10.00;5.55;;;;;;;-144.51;100.00;69251.94;5113611;28;20036;-79
2021/10/08 08:37:25;;;;;;;11.60;4.65;;;;;;;-144.51;100.00;69251.94;5118650;28;20035;-79
2021/10/08 08:43:13;;;;;;;7.95;4.40;;;;;;;-144.51;100.00;69251.94;5112625;28;19915;-79
2021/10/08 08:45:58;;;;;;;7.57;3.35;;;;;;;-144.51;100.00;69251.94;5116657;28;20043;-79
2021/10/08 08:49:03;;;;;;;9.52;5.18;;;;;;;-144.51;100.00;69251.94;5108589;28;20043;-79
2021/10/08 08:51:47;;;;;;;11.82;5.15;;;;;;;-144.51;100.00;69251.94;5119947;28;20040;-79
2021/10/08 08:54:53;;;;;;;9.13;3.50;;;;;;;-144.51;100.00;69251.94;5113905;28;20043;-80
2021/10/08 08:57:38;;;;;;;4.93;3.95;;;;;;;-144.51;100.00;69251.94;5114855;28;20519;-80
2021/10/08 09:00:23;;;;;;;5.95;3.70;;;;;;;-144.51;100.00;69251.94;5121051;28;20036;-81
2021/10/08 09:03:13;;;;;;;11.88;4.50;;;;;;;-144.51;100.00;69251.94;5118699;28;20043;-80
2021/10/08 09:05:58;;;;;;;7.88;3.78;;;;;;;-144.51;100.00;69251.94;5113624;28;20039;-80
2021/10/08 09:09:18;;;;;;;573.88;59.22;;;;;;;-144.51;100.00;69251.94;5118999;28;20054;-90
2021/10/08 09:12:03;;;;;;;10.80;4.07;;;;;;;-144.51;100.00;69251.94;5116592;28;20040;-86
2021/10/08 09:14:57;;;;;;;5.32;4.03;;;;;;;-144.51;100.00;69251.94;5119827;28;20052;-82
2021/10/08 09:17:42;;;;;;;7.57;4.03;;;;;;;-144.51;100.00;69251.94;5119132;28;20511;-87
2021/10/08 09:20:27;;;;;;;6.22;4.13;;;;;;;-144.51;100.00;69251.94;5117394;28;20035;-84
2021/10/08 09:23:11;;;;;;;8.43;3.83;;;;;;;-144.51;100.00;69251.94;5120244;28;20047;-85
2021/10/08 09:25:56;;;;;;;10.50;4.25;;;;;;;-144.51;100.00;69251.94;5120620;28;20043;-84
2021/10/08 09:29:16;;;;;;;5.60;3.90;;;;;;;-144.51;100.00;69251.94;5117378;28;20503;-85
2021/10/08 09:32:02;;;;;;;6.25;3.35;;;;;;;-144.51;100.00;69251.94;5115411;28;20035;-86
2021/10/08 09:38:01;;;;;;;9.65;3.65;;;;;;;-144.51;100.00;69251.94;5125478;28;20043;-86
2021/10/08 09:40:50;;;;;;;6.50;3.65;;;;;;;-144.51;100.00;69251.94;5123059;28;20044;-87
2021/10/08 09:43:35;;;;;;;10.70;3.83;;;;;;;-144.51;100.00;69251.94;5122318;28;20492;-80
2021/10/08 09:46:21;;;;;;;176.00;24.33;;;;;;;-144.51;100.00;69251.94;5123337;28;20039;-81
2021/10/08 09:49:06;;;;;;;16.02;4.57;;;;;;;-144.51;100.00;69251.94;5120743;28;20044;-80
2021/10/08 09:51:51;;;;;;;;;;;;;;;-144.51;100.00;69251.94;5119535;28;20052;-80
2021/10/08 09:54:53;;;;;;;5.45;3.28;;;;;;;-144.51;100.00;69251.94;5122446;28;19916;-80
2021/10/08 09:57:57;;;;;;;15.30;3.60;;;;;;;-144.51;100.00;69251.94;5116761;28;20036;-80
2021/10/08 10:00:50;;;;;;;11.07;4.25;;;;;;;-144.51;100.00;69251.94;5121416;28;20036;-80
2021/10/08 10:03:35;;;;;;;9.30;4.13;;;;;;;-144.51;100.00;69251.94;5121064;28;20516;-80
2021/10/08 10:06:21;;;;;;;5.40;3.58;;;;;;;-144.51;100.00;69251.94;5116132;28;20035;-80
2021/10/08 10:09:08;;;;;;;5.07;3.42;;;;;;;-144.51;100.00;69251.94;5122207;28;20044;-80
2021/10/08 10:11:53;;;;;;;9.07;3.55;;;;;;;-144.51;100.00;69251.94;5120267;28;20039;-80
2021/10/08 10:14:40;;;;;;;9.30;3.40;;;;;;;-144.51;100.00;69251.94;5118127;28;20507;-80
2021/10/08 10:17:24;;;;;;;15.00;4.22;;;;;;;-144.51;100.00;69251.94;5121378;28;20078;-80
2021/10/08 10:20:11;;;;;;;9.00;3.97;;;;;;;-144.51;100.00;69251.94;5120938;28;20044;-81
2021/10/08 10:22:58;;;;;;;5.95;3.55;;;;;;;-144.51;100.00;69251.94;5116929;28;20507;-80
2021/10/08 10:25:44;;;;;;;4.93;3.17;;;;;;;-144.51;100.00;69251.94;5120556;28;20043;-79
2021/10/08 10:28:49;;;;;;;8.00;2.67;;;;;;;-144.51;100.00;69251.94;5116058;28;20036;-79
2021/10/08 10:31:35;;;;;;;7.07;3.40;;;;;;;-144.51;100.00;69251.94;5121035;28;20047;-80
2021/10/08 10:34:20;;;;;;;6.03;3.80;;;;;;;-144.51;100.00;69251.94;5117915;28;20415;-80
2021/10/08 10:37:07;;;;;;;10.07;4.15;;;;;;;-144.51;100.00;69251.94;5118224;28;20043;-80
2021/10/08 10:40:16;;;;;;;5.80;3.40;;;;;;;-144.51;100.00;69251.94;5123490;28;20047;-80
2021/10/08 10:43:28;;;;;;;7.25;4.15;;;;;;;-144.51;100.00;69251.94;5118528;28;20040;-81
2021/10/08 10:52:09;;;;;;;8.15;3.70;;;;;;;-144.51;100.00;69251.94;5117130;28;19911;-80
2021/10/08 10:54:54;;;;;;;6.38;3.83;;;;;;;-144.51;100.00;69251.94;5132604;22;20506;-65
2021/10/08 10:57:39;;;;;;;5.72;3.85;;;;;;;-144.51;100.00;69251.94;5117325;28;20051;-65
2021/10/08 11:00:45;;;;;;;6.57;4.25;;;;;;;-144.51;100.00;69251.94;5095828;28;20417;-65
2021/10/08 11:03:32;;;;;;;5.72;3.33;;;;;;;-144.51;100.00;69251.94;5094261;28;20032;-65
2021/10/08 11:06:20;;;;;;;7.72;3.50;;;;;;;-144.51;100.00;69251.94;5091448;28;20043;-65
2021/10/08 11:09:07;;;;;;;8.18;3.90;;;;;;;-144.51;100.00;69251.94;5090751;28;20031;-66
2021/10/08 11:12:27;;;;;;;6.30;4.07;;;;;;;-144.51;100.00;69251.94;5088411;28;20068;-65
2021/10/08 11:15:15;;;;;;;4.38;3.22;;;;;;;-144.51;100.00;69251.94;5095980;28;20044;-65
2021/10/08 11:21:31;;;;;;;8.30;4.00;;;;;;;-144.51;100.00;69251.94;5097820;28;20032;-65
2021/10/08 11:24:23;;;;;;;6.07;4.10;;;;;;;-144.51;100.00;69251.94;5088811;28;20483;-65
2021/10/08 11:27:27;;;;;;;5.68;2.53;;;;;;;-144.51;100.00;69251.94;5097888;28;20036;-64
2021/10/08 11:30:30;;;;;;;3.30;2.40;;;;;;;-144.51;100.00;69251.94;5091821;28;20032;-64
2021/10/08 11:33:33;;;;;;;3.33;2.38;;;;;;;-144.51;100.00;69251.94;5097398;28;20032;-65
2021/10/08 11:36:37;;;;;;;3.75;2.42;;;;;;;-144.51;100.00;69251.94;5092046;28;20052;-65
2021/10/08 11:39:48;;;;;;;6.20;3.22;;;;;;;-144.51;100.00;69251.94;5092497;28;20044;-65
2021/10/08 11:42:39;;;;;;;4.47;2.88;;;;;;;-144.51;100.00;69251.94;5095019;28;20056;-65
2021/10/08 11:45:48;;;;;;;5.60;2.80;;;;;;;-144.51;100.00;69251.94;5092978;28;20383;-65
2021/10/08 11:49:00;;;;;;;8.65;3.75;;;;;;;-144.51;100.00;69251.94;5088664;28;20487;-65
2021/10/08 11:51:45;;;;;;;6.07;3.45;;;;;;;-144.51;100.00;69251.94;5089278;28;20039;-65
2021/10/08 11:54:31;;;;;;;3.75;2.75;;;;;;;-144.51;100.00;69251.94;5090556;28;20032;-65
2021/10/08 11:57:16;;;;;;;4.68;2.53;;;;;;;-144.51;100.00;69251.94;5088637;28;20041;-65
2021/10/08 12:00:01;;;;;;;4.93;2.78;;;;;;;-144.51;100.00;69251.94;5087469;28;20039;-64
2021/10/08 12:06:18;;;;;;;;;;;;;;;-144.51;100.00;69251.94;5092689;28;20040;-65
2021/10/08 12:09:17;;;;;;;4.93;2.33;;;;;;;-144.51;100.00;69251.94;5090857;28;19912;-65
2021/10/08 12:12:14;;;;;;;3.55;1.33;;;;;;;-144.51;100.00;69251.94;5094157;28;20036;-65
2021/10/08 12:14:59;;;;;;;1.92;1.23;;;;;;;-144.51;100.00;69251.94;5097162;28;20028;-64
2021/10/08 12:17:48;;;;;;;;;;;;;;;-144.51;100.00;69251.94;5096071;28;20048;-64
2021/10/08 12:20:33;;;;;;;2.58;1.08;;;;;;;-144.51;100.00;69251.94;5093729;28;19920;-65
2021/10/08 12:23:24;;;;;;;4.72;1.35;;;;;;;-144.51;100.00;69251.94;5096098;28;20040;-64
2021/10/08 12:26:11;;;;;;;5.05;1.13;;;;;;;-144.51;100.00;69251.94;5092145;28;20028;-65
2021/10/08 12:28:57;;;;;;;1.50;1.20;;;;;;;-144.51;100.00;69251.94;5092801;28;20410;-65
2021/10/08 12:32:04;;;;;;;1.40;0.98;;;;;;;-144.51;100.00;69251.94;5093320;28;20040;-65
2021/10/08 12:34:55;;;;;;;2.05;1.15;;;;;;;-144.51;100.00;69251.94;5091982;28;20032;-64
2021/10/08 12:37:42;;;;;;;4.55;1.67;;;;;;;-144.51;100.00;69251.94;5095008;28;20036;-64
2021/10/08 12:40:46;;;;;;;71.05;12.88;;;;;;;-144.51;100.00;69251.94;5088051;28;20040;-64
2021/10/08 12:43:33;;;;;;;1.48;1.13;;;;;;;-144.51;100.00;69251.94;5092610;28;20040;-64
2021/10/08 12:46:21;;;;;;;1.90;1.45;;;;;;;-144.51;100.00;69251.94;5094027;28;20036;-64
2021/10/08 12:49:25;;;;;;;3.60;1.40;;;;;;;-144.51;100.00;69251.94;5092059;28;20040;-64
2021/10/08 12:52:10;;;;;;;4.43;1.73;;;;;;;-144.51;100.00;69251.94;5090427;28;20040;-64
2021/10/08 12:55:21;;;;;;;26.20;6.13;;;;;;;-144.51;100.00;69251.94;5091968;28;20024;-64
2021/10/08 12:58:07;;;;;;;1.75;1.23;;;;;;;-144.51;100.00;69251.94;5091243;28;20048;-64
2021/10/08 13:00:54;;;;;;;2.22;1.60;;;;;;;-144.51;100.00;69251.94;5096294;28;20039;-63
2021/10/08 13:03:42;;;;;;;3.78;1.92;;;;;;;-144.51;100.00;69251.94;5088428;28;20040;-64
2021/10/08 13:06:29;;;;;;;7.32;2.28;;;;;;;-144.51;100.00;69251.94;5088227;28;20036;-64
2021/10/08 13:09:17;;;;;;;1.73;1.52;;;;;;;-144.51;100.00;69251.94;5097983;28;20044;-64
2021/10/08 13:12:02;;;;;;;3.13;1.63;;;;;;;-144.51;100.00;69251.94;5097878;28;20032;-64
2021/10/08 13:18:16;;;;;;;2.65;1.70;;;;;;;-144.51;100.00;69251.94;5094605;28;20044;-64
2021/10/08 13:21:00;;;;;;;3.05;1.85;;;;;;;-144.51;100.00;69251.94;5095827;28;20502;-65
2021/10/08 13:24:04;;;;;;;6.85;1.95;;;;;;;-144.51;100.00;69251.94;5093672;28;20040;-64
2021/10/08 13:26:49;;;;;;;2.55;1.50;;;;;;;-144.51;100.00;69251.94;5097254;28;20040;-65
2021/10/08 13:29:34;;;;;;;2.13;1.50;;;;;;;-144.51;100.00;69251.94;5095402;28;20052;-65
2021/10/08 13:32:19;;;;;;;3.17;1.75;;;;;;;-144.51;100.00;69251.94;5098815;28;20044;-64
2021/10/08 13:35:04;;;;;;;3.33;1.67;;;;;;;-144.51;100.00;69251.94;5094504;28;20032;-64
2021/10/08 13:37:49;;;;;;;5.07;1.60;;;;;;;-144.51;100.00;69251.94;5089211;28;20044;-65
2021/10/08 13:40:52;;;;;;;2.33;1.60;;;;;;;-144.51;100.00;69251.94;5091143;28;20031;-65
2021/10/08 13:43:38;;;;;;;1.73;1.17;;;;;;;-144.51;100.00;69251.94;5093125;28;20040;-65